Latest Coastal Weather Observations for Point Fawcett

IDD60701

Issued at 1:01 pm CST Saturday 4 July 2015 (issued every 10 minutes, with the page automatically refreshed every 10 minutes)

About coastal observations | Map of coastal stations | Coastal observations for NT | Marine services | Other Formats
Station Details ID: 200731 Name: POINT FAWCETT Lat: -11.76 Lon: 130.03 Height: 6.5 m
Data from the previous 72 hours. | See also: Recent months at Point Fawcett
Date/Time
CST
Temp

°C
Wind Pressure Rain
since 9am
mm
Weather Cloud Vis
km
Sea
Height
m
Swell
Dir
 
Speed
knots
Gust
knots
hPa Trend Height
m
Period
s
Dir
04/01:00pm 30.9 SE 6 12 1013.0 - 0.0 - - - - - - -
04/12:30pm 30.8 ESE 7 12 1013.4 - 0.0 - - - - - - -
04/12:00pm 30.3 E 9 15 1013.7 - 0.0 - - - - - - -
04/11:30am 30.2 E 5 9 1014.0 - 0.0 - - - - - - -
04/11:00am 29.3 ENE 8 13 1014.5 - 0.0 - - - - - - -
04/10:30am 28.4 ENE 7 10 1014.6 - 0.0 - - - - - - -
04/10:00am 27.6 E 8 13 1014.8 - 0.0 - - - - - - -
04/09:30am 26.8 E 6 11 1015.1 - 0.0 - - - - - - -
04/09:00am 25.4 E 5 8 1015.2 - 0.0 - - - - - - -
04/08:30am 22.8 E 5 7 1015.0 - 0.0 - - - - - - -
04/08:00am 18.2 ESE 5 6 1014.7 - 0.0 - - - - - - -
04/07:30am 17.1 ESE 4 6 1014.5 - 0.0 - - - - - - -
04/07:00am 16.6 E 5 7 1014.2 - 0.0 - - - - - - -
04/06:30am 16.6 E 5 7 1014.0 - 0.0 - - - - - - -
04/06:00am 16.6 E 5 6 1014.0 - 0.0 - - - - - - -
04/05:30am 16.9 ESE 5 6 1014.0 - 0.0 - - - - - - -
04/05:00am 17.0 E 5 6 1013.7 - 0.0 - - - - - - -
04/04:30am 17.2 E 5 6 1013.5 - 0.0 - - - - - - -
04/04:00am 17.4 E 5 6 1013.6 - 0.0 - - - - - - -
04/03:30am 17.6 E 5 6 1013.7 - 0.0 - - - - - - -
04/03:00am 18.1 E 5 6 1013.7 - 0.0 - - - - - - -
04/02:30am 17.6 E 6 7 1013.9 - 0.0 - - - - - - -
04/02:00am 17.0 E 6 7 1014.1 - 0.0 - - - - - - -
04/01:30am 16.5 E 5 5 1014.2 - 0.0 - - - - - - -
04/01:00am 16.8 E 4 5 1014.3 - 0.0 - - - - - - -
 
Date/Time
CST
Temp

°C
Wind Pressure Rain
since 9am
mm
Weather Cloud Vis
km
Sea
Height
m
Swell
Dir
 
Speed
knots
Gust
knots
hPa Trend Height
m
Period
s
Dir
03/11:30pm 17.2 SE 5 5 1014.5 - 0.0 - - - - - - -
03/10:00pm 18.2 E 4 4 1014.2 - 0.0 - - - - - - -
03/09:30pm 18.6 ESE 4 4 1013.8 - 0.0 - - - - - - -
03/09:00pm 19.0 E 4 5 1013.6 - 0.0 - - - - - - -
03/08:30pm 19.5 E 4 5 1013.2 - 0.0 - - - - - - -
03/08:00pm 20.2 E 5 5 1012.9 - 0.0 - - - - - - -
03/07:30pm 21.2 ESE 4 5 1012.5 - 0.0 - - - - - - -
03/07:00pm 23.0 ESE 3 4 1012.2 - 0.0 - - - - - - -
03/06:30pm 26.1 E 4 6 1012.0 - 0.0 - - - - - - -
03/06:00pm 28.3 E 4 6 1011.8 - 0.0 - - - - - - -
03/05:30pm 29.2 E 7 9 1011.6 - 0.0 - - - - - - -
03/05:00pm 30.0 ESE 7 13 1011.6 - 0.0 - - - - - - -
03/04:30pm 30.5 E 8 12 1011.7 - 0.0 - - - - - - -
03/04:00pm 30.7 E 8 13 1011.9 - 0.0 - - - - - - -
03/03:30pm 31.1 ESE 8 15 1012.1 - 0.0 - - - - - - -
03/03:00pm 30.7 E 11 19 1012.4 - 0.0 - - - - - - -
03/02:30pm 30.3 E 10 17 1012.9 - 0.0 - - - - - - -
03/02:00pm 30.1 ESE 11 19 1013.3 - 0.0 - - - - - - -
03/01:30pm 30.9 E 9 16 1013.7 - 0.0 - - - - - - -
03/01:00pm 29.7 ESE 10 19 1013.9 - 0.0 - - - - - - -
03/12:30pm 29.6 E 10 18 1014.4 - 0.0 - - - - - - -
03/11:30am 29.6 ESE 10 16 1015.3 - 0.0 - - - - - - -
03/11:00am 29.6 ESE 9 18 1015.7 - 0.0 - - - - - - -
03/10:00am 28.5 ESE 8 14 1015.9 - 0.0 - - - - - - -
03/09:30am 27.4 ESE 8 15 1015.9 - 0.0 - - - - - - -
03/09:00am 26.9 ESE 5 8 1015.8 - 0.0 - - - - - - -
03/08:30am 24.2 ESE 3 4 1015.6 - 0.0 - - - - - - -
03/08:00am 20.7 SE 4 5 1015.4 - 0.0 - - - - - - -
03/07:30am 19.2 SE 4 5 1015.2 - 0.0 - - - - - - -
03/07:00am 19.1 SE 4 5 1014.9 - 0.0 - - - - - - -
03/06:30am 18.9 ESE 4 5 1014.6 - 0.0 - - - - - - -
03/06:00am 19.0 ESE 4 4 1014.4 - 0.0 - - - - - - -
03/05:30am 19.2 ESE 3 6 1014.4 - 0.0 - - - - - - -
03/05:00am 19.6 ESE 4 4 1014.3 - 0.0 - - - - - - -
03/04:30am 20.0 SE 3 4 1014.4 - 0.0 - - - - - - -
03/04:00am 20.3 SE 4 4 1014.5 - 0.0 - - - - - - -
03/03:00am 21.0 SSE 3 4 1014.9 - 0.0 - - - - - - -
03/12:30am 21.4 SE 3 4 1015.4 - 0.0 - - - - - - -
03/12:00am 21.7 ENE 4 6 1015.3 - 0.0 - - - - - - -
 
Date/Time
CST
Temp

°C
Wind Pressure Rain
since 9am
mm
Weather Cloud Vis
km
Sea
Height
m
Swell
Dir
 
Speed
knots
Gust
knots
hPa Trend Height
m
Period
s
Dir
02/11:30pm 21.7 ENE 4 5 1015.3 - 0.0 - - - - - - -
02/11:00pm 23.3 ENE 4 6 1015.3 - 0.0 - - - - - - -
02/10:00pm 24.9 NE 6 9 1015.5 - 0.0 - - - - - - -
02/09:30pm 24.5 NE 6 10 1015.3 - 0.0 - - - - - - -
02/09:00pm 22.6 ENE 5 7 1015.1 - 0.0 - - - - - - -
02/08:30pm 20.5 ENE 4 5 1014.8 - 0.0 - - - - - - -
02/08:00pm 21.5 ENE 4 5 1014.4 - 0.0 - - - - - - -
02/07:30pm 22.7 E 4 5 1014.1 - 0.0 - - - - - - -
02/07:00pm 24.8 ENE 4 5 1013.6 - 0.0 - - - - - - -
02/06:30pm 27.5 E 5 7 1013.3 - 0.0 - - - - - - -
02/06:00pm 29.3 E 6 10 1013.0 - 0.0 - - - - - - -
02/05:30pm 30.0 E 6 10 1012.7 - 0.0 - - - - - - -
02/05:00pm 30.3 ESE 8 14 1012.6 - 0.0 - - - - - - -
02/04:30pm 30.5 ESE 8 14 1012.5 - 0.0 - - - - - - -
02/04:00pm 30.8 ESE 9 17 1012.7 - 0.0 - - - - - - -
02/03:30pm 31.3 ESE 7 15 1012.8 - 0.0 - - - - - - -
02/03:00pm 30.9 ESE 10 16 1012.9 - 0.0 - - - - - - -
02/02:30pm 31.4 ESE 8 16 1013.4 - 0.0 - - - - - - -
02/02:00pm 31.4 ESE 10 16 1013.9 - 0.0 - - - - - - -
02/01:30pm 31.0 ESE 10 21 1014.4 - 0.0 - - - - - - -
02/01:00pm 30.4 ESE 12 22 1014.8 - 0.0 - - - - - - -
02/12:30pm 30.0 ESE 11 23 1015.1 - 0.0 - - - - - - -
02/12:00pm 29.5 ESE 13 23 1015.5 - 0.0 - - - - - - -
02/11:30am 28.8 ESE 10 22 1015.8 - 0.0 - - - - - - -
02/11:00am 28.7 ESE 12 26 1016.3 - 0.0 - - - - - - -
02/10:00am 27.7 ESE 9 15 1016.8 - 0.0 - - - - - - -
02/09:30am 27.2 ESE 10 19 1016.8 - 0.0 - - - - - - -
02/09:00am 25.6 ESE 5 8 1016.8 - 0.0 - - - - - - -
02/08:30am 24.9 E 5 7 1016.6 - 0.0 - - - - - - -
02/08:00am 22.7 ESE 1 4 1016.4 - 0.0 - - - - - - -
02/07:30am 22.7 ESE 3 4 1016.1 - 0.0 - - - - - - -
02/07:00am 23.0 E 4 6 1016.0 - 0.0 - - - - - - -
02/06:30am 22.9 ESE 4 6 1015.9 - 0.0 - - - - - - -
02/06:00am 22.7 ESE 5 10 1016.1 - 0.0 - - - - - - -
02/05:30am 23.1 ESE 8 16 1016.0 - 0.0 - - - - - - -
02/05:00am 23.9 ESE 8 16 1016.0 - 0.0 - - - - - - -
02/04:30am 24.0 ESE 9 15 1015.9 - 0.0 - - - - - - -
02/04:00am 24.3 E 7 13 1015.9 - 0.0 - - - - - - -
02/03:00am 22.5 E 4 6 1015.9 - 0.0 - - - - - - -
02/02:30am 22.1 E 4 5 1016.0 - 0.0 - - - - - - -
02/02:00am 22.3 E 4 6 1016.3 - 0.0 - - - - - - -
02/01:30am 21.4 E 5 6 1016.4 - 0.0 - - - - - - -
02/01:00am 20.5 ESE 4 5 1016.4 - 0.0 - - - - - - -
02/12:30am 20.4 SE 4 4 1016.4 - 0.0 - - - - - - -
02/12:00am 19.5 SSE 4 5 1016.3 - 0.0 - - - - - - -
 
Date/Time
CST
Temp

°C
Wind Pressure Rain
since 9am
mm
Weather Cloud Vis
km
Sea
Height
m
Swell
Dir
 
Speed
knots
Gust
knots
hPa Trend Height
m
Period
s
Dir
01/11:00pm 19.9 S 4 5 1016.4 - 0.0 - - - - - - -
01/10:30pm 20.0 S 4 5 1016.3 - 0.0 - - - - - - -
01/10:00pm 20.0 S 4 5 1016.0 - 0.0 - - - - - - -
01/09:30pm 20.0 SSE 4 4 1015.9 - 0.0 - - - - - - -
01/09:00pm 20.2 S 4 5 1015.6 - 0.0 - - - - - - -
01/08:30pm 20.7 S 4 5 1015.1 - 0.0 - - - - - - -
01/08:00pm 21.0 SSE 4 6 1014.5 - 0.0 - - - - - - -
01/07:30pm 21.2 S 4 5 1014.2 - 0.0 - - - - - - -
01/07:00pm 22.4 S 4 5 1013.7 - 0.0 - - - - - - -
01/06:30pm 24.6 SE 3 3 1013.6 - 0.0 - - - - - - -
01/06:00pm 27.3 SE 4 6 1013.4 - 0.0 - - - - - - -
01/05:30pm 28.8 ESE 6 8 1013.3 - 0.0 - - - - - - -
01/05:00pm 29.7 SE 6 10 1013.3 - 0.0 - - - - - - -
01/04:30pm 29.6 SSE 7 11 1013.2 - 0.0 - - - - - - -
01/04:00pm 30.4 SE 7 11 1013.3 - 0.0 - - - - - - -
01/03:30pm 30.6 SE 6 10 1013.6 - 0.0 - - - - - - -
01/03:00pm 30.3 SE 7 12 1013.9 - 0.0 - - - - - - -
01/02:30pm 30.3 SSE 7 11 1014.3 - 0.0 - - - - - - -
01/02:00pm 30.8 SE 7 11 1014.7 - 0.0 - - - - - - -
01/01:30pm 30.3 S 7 11 1015.4 - 0.0 - - - - - - -

Other Formats:

Comma delimited format used in spreadsheet applications
http://www.bom.gov.au/fwo/IDD60701/IDD60701.94122.axf

JavaScript Object Notation format (JSON) in row-major order
http://www.bom.gov.au/fwo/IDD60701/IDD60701.94122.json